Ray, Minnesota
Current Conditions -  °F | °C
As of 3:55 AM on Thursday 18 Dec 2014 (Local Time) from KINL Reporting Station
Clear Clear  
Wind Chill:   Ceiling: Unl
Heat Index:   Visibility: 10mi
Dew Point: -5°   Wind: 0mph
Humidity: 79%   Direction: NA
Pressure: 30.31"   Gusts: NA
Location:  48.41°N, 93.21°W
Report Text: KINL 180955Z AUTO 00000KT 10SM CLR M18/M21 A3031 RMK AO2 SLP296 I1000 T11781206
Loading
Personal Weather Stations






























Interactive Weather Map New forecast layout! Learn more

10-Day Weather Forecast

Advertisements
Track Severe Weather on mobile